createdAt,value
2017-11-04T00:00:53.586Z,99.90
2017-11-04T00:03:21.203Z,99.90
2017-11-04T00:05:48.787Z,99.90
2017-11-04T00:08:16.404Z,99.90
2017-11-04T00:10:43.961Z,99.90
2017-11-04T00:13:11.552Z,99.90
2017-11-04T00:15:39.160Z,99.90
2017-11-04T00:18:07.499Z,99.90
2017-11-04T00:20:35.120Z,99.90
2017-11-04T00:23:02.705Z,99.90
2017-11-04T00:25:31.658Z,99.90
2017-11-04T00:28:00.323Z,99.90
2017-11-04T00:30:27.952Z,99.90
2017-11-04T00:32:56.434Z,99.90
2017-11-04T00:35:24.868Z,99.90
2017-11-04T00:37:52.440Z,99.90
2017-11-04T00:40:20.056Z,99.90
2017-11-04T00:42:47.627Z,99.90
2017-11-04T00:45:15.263Z,99.90
2017-11-04T00:47:42.900Z,99.90
2017-11-04T00:50:11.272Z,99.90
2017-11-04T00:52:38.864Z,99.90
2017-11-04T00:55:06.902Z,99.90
2017-11-04T00:57:34.499Z,99.90
2017-11-04T01:00:02.077Z,99.90
2017-11-04T01:02:30.237Z,99.90
2017-11-04T01:04:57.885Z,99.90
2017-11-04T01:07:25.505Z,99.90
2017-11-04T01:09:53.113Z,99.90
2017-11-04T01:12:20.740Z,99.90
2017-11-04T01:14:48.335Z,99.90
2017-11-04T01:17:15.935Z,99.90
2017-11-04T01:19:43.560Z,99.90
2017-11-04T01:22:11.165Z,99.90
2017-11-04T01:24:38.747Z,99.90
2017-11-04T01:27:07.613Z,99.80
2017-11-04T01:29:35.239Z,99.80
2017-11-04T01:32:03.700Z,99.80
2017-11-04T01:34:31.290Z,99.80
2017-11-04T01:36:58.901Z,99.80
2017-11-04T01:39:27.298Z,99.90
2017-11-04T01:41:54.883Z,99.90
2017-11-04T01:44:22.563Z,99.90
2017-11-04T01:46:50.165Z,99.90
2017-11-04T01:49:18.539Z,99.90
2017-11-04T01:51:46.158Z,99.90
2017-11-04T01:54:14.140Z,99.90
2017-11-04T01:56:43.137Z,99.90
2017-11-04T01:59:11.058Z,99.90
2017-11-04T02:01:38.699Z,99.90
2017-11-04T02:04:07.094Z,99.90
2017-11-04T02:06:34.749Z,99.80
2017-11-04T02:09:02.386Z,99.90
2017-11-04T02:11:29.954Z,99.90
2017-11-04T02:13:57.539Z,99.80
2017-11-04T02:16:25.138Z,99.80
2017-11-04T02:18:52.731Z,99.90
2017-11-04T02:21:20.394Z,99.80
2017-11-04T02:23:48.099Z,99.70
2017-11-04T02:26:15.855Z,99.80
2017-11-04T02:28:43.428Z,99.80
2017-11-04T02:31:11.245Z,99.80
2017-11-04T02:33:38.850Z,99.90
2017-11-04T02:36:07.260Z,99.80
2017-11-04T02:38:34.877Z,99.90
2017-11-04T02:41:02.445Z,99.90
2017-11-04T02:43:30.080Z,99.90
2017-11-04T02:45:57.969Z,99.90
2017-11-04T02:48:25.628Z,99.90
2017-11-04T02:50:53.206Z,99.90
2017-11-04T02:53:20.841Z,99.90
2017-11-04T02:55:49.299Z,99.80
2017-11-04T02:58:17.678Z,99.80
2017-11-04T03:00:45.324Z,99.80
2017-11-04T03:03:12.914Z,99.70
2017-11-04T03:05:41.342Z,99.60
2017-11-04T03:08:09.684Z,99.50
2017-11-04T03:10:38.065Z,99.50
2017-11-04T03:13:05.661Z,99.50
2017-11-04T03:15:33.983Z,99.40
2017-11-04T03:18:02.402Z,99.60
2017-11-04T03:20:30.034Z,99.60
2017-11-04T03:22:58.404Z,99.40
2017-11-04T03:25:27.424Z,99.50
2017-11-04T03:27:55.025Z,99.50
2017-11-04T03:30:22.648Z,99.40
2017-11-04T03:32:50.270Z,99.40
2017-11-04T03:35:17.940Z,99.40
2017-11-04T03:37:45.537Z,99.40
2017-11-04T03:42:47.104Z,99.50
2017-11-04T03:45:15.071Z,99.50
2017-11-04T03:47:43.275Z,99.50
2017-11-04T03:50:10.879Z,99.50
2017-11-04T03:52:39.324Z,99.50
2017-11-04T03:55:06.916Z,99.50
2017-11-04T03:57:34.561Z,99.40
2017-11-04T04:00:02.116Z,99.40
2017-11-04T04:02:29.701Z,99.50
2017-11-04T04:04:57.342Z,99.60
2017-11-04T04:07:24.906Z,99.50
2017-11-04T04:09:52.493Z,99.60
2017-11-04T04:12:21.675Z,99.50
2017-11-04T04:14:49.270Z,99.50
2017-11-04T04:17:16.856Z,99.50
2017-11-04T04:19:45.105Z,99.60
2017-11-04T04:22:12.696Z,99.50
2017-11-04T04:24:42.166Z,99.60
2017-11-04T04:27:09.792Z,99.80
2017-11-04T04:29:38.172Z,99.80
2017-11-04T04:32:06.524Z,99.80
2017-11-04T04:34:34.117Z,99.80
2017-11-04T04:37:02.462Z,99.90
2017-11-04T04:39:30.072Z,99.90
2017-11-04T04:41:57.663Z,99.90
2017-11-04T04:44:25.254Z,99.90
2017-11-04T04:46:52.880Z,99.90
2017-11-04T04:49:20.479Z,99.90
2017-11-04T04:51:48.849Z,99.90
2017-11-04T04:54:17.201Z,99.90
2017-11-04T04:56:44.847Z,99.90
2017-11-04T04:59:12.436Z,99.90
2017-11-04T05:01:40.384Z,99.70
2017-11-04T05:04:07.977Z,99.70
2017-11-04T05:06:35.897Z,99.70
2017-11-04T05:09:03.523Z,99.60
2017-11-04T05:11:31.896Z,99.70
2017-11-04T05:13:59.450Z,99.70
2017-11-04T05:16:27.005Z,99.70
2017-11-04T05:18:55.313Z,99.80
2017-11-04T05:21:23.641Z,99.70
2017-11-04T05:23:51.223Z,99.70
2017-11-04T05:26:18.790Z,99.80
2017-11-04T05:28:47.063Z,99.90
2017-11-04T05:31:14.954Z,99.90
2017-11-04T05:33:43.036Z,99.90
2017-11-04T05:36:11.455Z,99.90
2017-11-04T05:38:39.028Z,99.90
2017-11-04T05:41:06.604Z,99.90
2017-11-04T05:43:35.117Z,99.90
2017-11-04T05:46:02.706Z,99.90
2017-11-04T05:48:30.300Z,99.90
2017-11-04T05:50:57.998Z,99.90
2017-11-04T05:53:26.384Z,99.90
2017-11-04T05:55:54.128Z,99.90
2017-11-04T05:58:21.694Z,99.90
2017-11-04T06:00:49.318Z,99.90
2017-11-04T06:03:16.907Z,99.90
2017-11-04T06:05:44.488Z,99.90
2017-11-04T06:08:12.102Z,99.90
2017-11-04T06:10:40.471Z,99.90
2017-11-04T06:13:08.081Z,99.90
2017-11-04T06:15:35.734Z,99.90
2017-11-04T06:18:03.338Z,99.90
2017-11-04T06:20:31.473Z,99.90
2017-11-04T06:22:59.118Z,99.90
2017-11-04T06:25:27.509Z,99.90
2017-11-04T06:27:55.393Z,99.90
2017-11-04T06:30:23.018Z,99.90
2017-11-04T06:32:50.634Z,99.90
2017-11-04T06:35:18.243Z,99.90
2017-11-04T06:37:46.693Z,99.90
2017-11-04T06:40:14.340Z,99.90
2017-11-04T06:42:41.942Z,99.90
2017-11-04T06:45:11.244Z,99.90
2017-11-04T06:47:39.568Z,99.90
2017-11-04T06:50:07.186Z,99.90
2017-11-04T06:52:35.544Z,99.70
2017-11-04T06:55:03.126Z,99.70
2017-11-04T06:57:31.668Z,99.60
2017-11-04T07:00:00.273Z,99.60
2017-11-04T07:02:27.901Z,99.50
2017-11-04T07:04:55.503Z,99.40
2017-11-04T07:07:23.075Z,99.40
2017-11-04T07:09:51.512Z,99.40
2017-11-04T07:12:19.136Z,99.40
2017-11-04T07:14:46.772Z,99.40
2017-11-04T07:17:15.216Z,99.40
2017-11-04T07:19:42.797Z,99.20
2017-11-04T07:22:10.369Z,99.20
2017-11-04T07:24:38.804Z,99.20
2017-11-04T07:27:06.467Z,99.20
2017-11-04T07:29:34.757Z,99.00
2017-11-04T07:32:02.312Z,99.00
2017-11-04T07:34:30.302Z,98.80
2017-11-04T07:36:57.868Z,98.70
2017-11-04T07:39:25.863Z,98.50
2017-11-04T07:41:54.222Z,98.10
2017-11-04T07:44:21.811Z,98.10
2017-11-04T07:46:49.452Z,98.30
2017-11-04T07:49:17.758Z,98.00
2017-11-04T07:51:45.385Z,98.00
2017-11-04T07:54:12.935Z,98.00
2017-11-04T07:56:40.537Z,98.00
2017-11-04T07:59:08.186Z,97.90
2017-11-04T08:01:36.520Z,98.00
2017-11-04T08:04:04.171Z,98.00
2017-11-04T08:06:31.777Z,97.70
2017-11-04T08:08:59.356Z,97.70
2017-11-04T08:11:26.991Z,97.80
2017-11-04T08:13:54.546Z,97.70
2017-11-04T08:16:22.212Z,97.50
2017-11-04T08:18:50.819Z,97.60
2017-11-04T08:21:18.662Z,97.60
2017-11-04T08:23:47.023Z,97.60
2017-11-04T08:26:15.956Z,97.60
2017-11-04T08:28:43.591Z,97.80
2017-11-04T08:31:11.188Z,98.00
2017-11-04T08:33:38.748Z,98.20
2017-11-04T08:36:06.357Z,98.00
2017-11-04T08:38:34.251Z,98.10
2017-11-04T08:41:06.769Z,98.00
2017-11-04T08:43:35.133Z,98.00
2017-11-04T08:46:02.793Z,98.00
2017-11-04T08:48:30.399Z,97.90
2017-11-04T08:50:58.916Z,97.90
2017-11-04T08:53:26.570Z,98.00
2017-11-04T08:55:54.913Z,97.60
2017-11-04T08:58:22.498Z,97.60
2017-11-04T09:00:50.085Z,97.50
2017-11-04T09:03:17.663Z,97.40
2017-11-04T09:05:45.274Z,97.70
2017-11-04T09:08:12.845Z,97.80
2017-11-04T09:10:40.492Z,97.90
2017-11-04T09:13:08.894Z,97.70
2017-11-04T09:15:36.540Z,97.90
2017-11-04T09:18:05.721Z,98.10
2017-11-04T09:20:33.302Z,98.10
2017-11-04T09:23:01.670Z,98.20
2017-11-04T09:25:29.256Z,98.20
2017-11-04T09:27:56.879Z,98.30
2017-11-04T09:30:24.486Z,98.30
2017-11-04T09:32:52.267Z,98.20
2017-11-04T09:35:20.007Z,98.30
2017-11-04T09:37:48.449Z,98.20
2017-11-04T09:40:16.030Z,97.50
2017-11-04T09:42:43.640Z,97.50
2017-11-04T09:45:11.266Z,97.40
2017-11-04T09:47:39.625Z,97.20
2017-11-04T09:50:07.251Z,97.10
2017-11-04T09:52:35.757Z,97.20
2017-11-04T09:55:03.484Z,97.30
2017-11-04T09:57:31.052Z,97.40
2017-11-04T09:59:58.614Z,97.30
2017-11-04T10:02:26.223Z,97.30
2017-11-04T10:04:54.598Z,97.00
2017-11-04T10:07:22.988Z,97.10
2017-11-04T10:09:51.338Z,97.20
2017-11-04T10:12:18.910Z,97.20
2017-11-04T10:14:46.622Z,96.80
2017-11-04T10:17:14.236Z,97.20
2017-11-04T10:19:42.620Z,96.50
2017-11-04T10:22:11.092Z,96.60
2017-11-04T10:24:39.633Z,96.40
2017-11-04T10:27:07.248Z,96.40
2017-11-04T10:29:35.610Z,96.00
2017-11-04T10:32:03.286Z,96.00
2017-11-04T10:34:31.670Z,95.50
2017-11-04T10:37:00.025Z,95.80
2017-11-04T10:39:27.726Z,95.70
2017-11-04T10:41:55.366Z,95.50
2017-11-04T10:44:22.980Z,95.60
2017-11-04T10:46:50.645Z,95.70
2017-11-04T10:49:19.101Z,95.70
2017-11-04T10:51:46.692Z,95.70
2017-11-04T10:54:15.204Z,95.60
2017-11-04T10:56:42.946Z,95.50
2017-11-04T10:59:10.545Z,95.50
2017-11-04T11:01:38.169Z,95.30
2017-11-04T11:04:06.558Z,95.00
2017-11-04T11:06:34.227Z,95.40
2017-11-04T11:09:01.855Z,95.00
2017-11-04T11:11:29.488Z,95.00
2017-11-04T11:13:57.151Z,95.20
2017-11-04T11:16:24.755Z,94.90
2017-11-04T11:18:53.130Z,94.90
2017-11-04T11:21:21.506Z,94.80
2017-11-04T11:23:49.844Z,94.70
2017-11-04T11:26:17.460Z,94.70
2017-11-04T11:28:45.120Z,94.10
2017-11-04T11:31:12.794Z,94.20
2017-11-04T11:33:41.289Z,94.40
2017-11-04T11:36:08.880Z,94.40
2017-11-04T11:38:37.990Z,94.50
2017-11-04T11:41:06.377Z,94.30
2017-11-04T11:43:34.733Z,94.60
2017-11-04T11:46:02.349Z,94.60
2017-11-04T11:48:29.981Z,94.60
2017-11-04T11:50:58.383Z,94.30
2017-11-04T11:53:25.977Z,94.30
2017-11-04T11:55:53.558Z,94.40
2017-11-04T11:58:21.595Z,94.10
2017-11-04T12:00:50.024Z,94.10
2017-11-04T12:03:17.677Z,94.00
2017-11-04T12:05:45.295Z,94.10
2017-11-04T12:08:13.084Z,94.30
2017-11-04T12:10:40.727Z,94.20
2017-11-04T12:13:08.365Z,94.30
2017-11-04T12:15:35.962Z,94.10
2017-11-04T12:18:03.564Z,93.70
2017-11-04T12:20:31.198Z,93.50
2017-11-04T12:22:58.785Z,93.20
2017-11-04T12:25:26.440Z,93.10
2017-11-04T12:27:54.080Z,92.70
2017-11-04T12:30:21.735Z,92.20
2017-11-04T12:32:49.446Z,92.40
2017-11-04T12:35:18.668Z,92.00
2017-11-04T12:37:46.290Z,92.00
2017-11-04T12:40:14.147Z,92.10
2017-11-04T12:42:41.713Z,92.20
2017-11-04T12:45:09.320Z,92.40
2017-11-04T12:47:36.917Z,92.50
2017-11-04T12:50:04.520Z,92.40
2017-11-04T12:52:32.290Z,92.40
2017-11-04T12:55:00.662Z,92.40
2017-11-04T12:57:28.295Z,92.40
2017-11-04T12:59:55.955Z,92.50
2017-11-04T13:02:24.577Z,92.60
2017-11-04T13:04:52.187Z,92.40
2017-11-04T13:07:20.570Z,92.60
2017-11-04T13:09:48.190Z,93.00
2017-11-04T13:12:15.762Z,92.80
2017-11-04T13:14:43.418Z,92.90
2017-11-04T13:17:11.105Z,93.10
2017-11-04T13:19:38.712Z,93.10
2017-11-04T13:22:06.406Z,92.90
2017-11-04T13:24:34.157Z,93.00
2017-11-04T13:27:01.789Z,92.90
2017-11-04T13:29:30.372Z,92.70
2017-11-04T13:31:58.777Z,92.50
2017-11-04T13:34:26.392Z,92.50
2017-11-04T13:36:54.001Z,92.40
2017-11-04T13:39:21.638Z,92.40
2017-11-04T13:41:50.133Z,92.00
2017-11-04T13:44:17.798Z,92.00
2017-11-04T13:46:45.447Z,92.10
2017-11-04T13:49:13.830Z,91.90
2017-11-04T13:51:42.170Z,92.20
2017-11-04T13:54:09.799Z,92.20
2017-11-04T13:56:37.386Z,92.10
2017-11-04T13:59:04.986Z,92.20
2017-11-04T14:01:32.676Z,92.20
2017-11-04T14:04:00.288Z,91.90
2017-11-04T14:06:27.887Z,91.90
2017-11-04T14:08:55.513Z,91.80
2017-11-04T14:11:23.085Z,91.90
2017-11-04T14:13:50.666Z,92.10
2017-11-04T14:16:18.282Z,92.40
2017-11-04T14:18:45.936Z,92.10
2017-11-04T14:21:13.533Z,92.20
2017-11-04T14:23:41.992Z,92.30
2017-11-04T14:26:10.391Z,92.20
2017-11-04T14:28:38.843Z,92.20
2017-11-04T14:31:06.443Z,92.20
2017-11-04T14:33:34.084Z,92.20
2017-11-04T14:36:01.687Z,92.20
2017-11-04T14:38:29.256Z,92.30
2017-11-04T14:40:56.960Z,92.30
2017-11-04T14:43:24.559Z,92.30
2017-11-04T14:45:52.161Z,92.70
2017-11-04T14:48:19.801Z,92.20
2017-11-04T14:50:47.386Z,92.10
2017-11-04T14:53:15.115Z,92.30
2017-11-04T14:55:42.716Z,92.40
2017-11-04T14:58:11.057Z,92.60
2017-11-04T15:00:38.672Z,92.60
2017-11-04T15:03:06.251Z,92.70
2017-11-04T15:05:33.812Z,92.80
2017-11-04T15:08:01.432Z,92.80
2017-11-04T15:10:29.841Z,93.00
2017-11-04T15:12:57.485Z,93.00
2017-11-04T15:15:25.199Z,93.00
2017-11-04T15:17:53.595Z,93.10
2017-11-04T15:20:21.211Z,93.00
2017-11-04T15:22:48.817Z,93.10
2017-11-04T15:25:16.507Z,93.10
2017-11-04T15:27:44.860Z,93.30
2017-11-04T15:30:12.489Z,93.30
2017-11-04T15:32:40.997Z,93.40
2017-11-04T15:35:08.657Z,93.40
2017-11-04T15:37:36.265Z,93.50
2017-11-04T15:40:03.852Z,93.50
2017-11-04T15:42:31.459Z,93.60
2017-11-04T15:44:59.837Z,93.90
2017-11-04T15:47:27.513Z,94.30
2017-11-04T15:49:55.898Z,94.20
2017-11-04T15:52:23.461Z,94.20
2017-11-04T15:54:51.909Z,94.40
2017-11-04T15:57:19.475Z,94.40
2017-11-04T15:59:47.046Z,94.40
2017-11-04T16:02:14.704Z,94.50
2017-11-04T16:04:42.287Z,94.70
2017-11-04T16:07:09.924Z,94.70
2017-11-04T16:09:37.593Z,94.70
2017-11-04T16:12:05.212Z,94.70
2017-11-04T16:14:33.613Z,94.70
2017-11-04T16:17:01.182Z,94.60
2017-11-04T16:19:28.829Z,94.30
2017-11-04T16:21:57.234Z,94.20
2017-11-04T16:24:24.858Z,94.20
2017-11-04T16:26:54.085Z,93.90
2017-11-04T16:29:21.688Z,93.90
2017-11-04T16:31:49.313Z,93.80
2017-11-04T16:34:17.870Z,93.90
2017-11-04T16:36:46.235Z,93.80
2017-11-04T16:39:14.642Z,93.70
2017-11-04T16:41:42.233Z,93.70
2017-11-04T16:44:09.855Z,93.70
2017-11-04T16:46:37.515Z,93.70
2017-11-04T16:49:05.066Z,93.70
2017-11-04T16:51:32.653Z,93.60
2017-11-04T16:54:00.272Z,93.60
2017-11-04T16:56:27.862Z,93.60
2017-11-04T16:58:55.453Z,93.40
2017-11-04T17:01:23.892Z,93.30
2017-11-04T17:03:51.498Z,93.30
2017-11-04T17:06:19.113Z,93.20
2017-11-04T17:08:46.744Z,93.10
2017-11-04T17:11:14.408Z,93.10
2017-11-04T17:13:42.087Z,93.30
2017-11-04T17:16:09.696Z,93.20
2017-11-04T17:18:37.369Z,93.30
2017-11-04T17:21:05.813Z,93.30
2017-11-04T17:23:33.416Z,93.30
2017-11-04T17:26:01.901Z,93.40
2017-11-04T17:28:29.477Z,93.40
2017-11-04T17:30:57.564Z,93.40
2017-11-04T17:33:25.180Z,93.30
2017-11-04T17:35:54.521Z,93.30
2017-11-04T17:38:22.181Z,93.30
2017-11-04T17:40:49.758Z,93.10
2017-11-04T17:43:17.359Z,93.20
2017-11-04T17:45:45.043Z,93.40
2017-11-04T17:48:12.665Z,93.50
2017-11-04T17:50:40.296Z,93.70
2017-11-04T17:53:07.912Z,94.30
2017-11-04T17:55:35.701Z,94.80
2017-11-04T17:58:04.133Z,94.90
2017-11-04T18:00:31.783Z,95.20
2017-11-04T18:03:00.188Z,95.30
2017-11-04T18:05:28.736Z,95.30
2017-11-04T18:07:56.428Z,95.40
2017-11-04T18:10:24.080Z,95.40
2017-11-04T18:12:51.771Z,95.50
2017-11-04T18:15:19.436Z,95.50
2017-11-04T18:17:47.795Z,95.40
2017-11-04T18:20:15.489Z,95.40
2017-11-04T18:22:43.193Z,95.30
2017-11-04T18:25:10.981Z,95.30
2017-11-04T18:27:38.650Z,95.20
2017-11-04T18:30:06.328Z,95.30
2017-11-04T18:32:33.963Z,95.30
2017-11-04T18:35:01.616Z,95.20
2017-11-04T18:37:29.964Z,95.30
2017-11-04T18:39:57.630Z,95.30
2017-11-04T18:42:25.237Z,95.30
2017-11-04T18:44:52.850Z,95.40
2017-11-04T18:47:20.477Z,95.40
2017-11-04T18:49:48.091Z,95.70
2017-11-04T18:52:15.749Z,96.20
2017-11-04T18:54:43.336Z,96.70
2017-11-04T18:57:10.929Z,97.00
2017-11-04T18:59:38.559Z,97.30
2017-11-04T19:02:06.346Z,97.60
2017-11-04T19:04:34.122Z,97.80
2017-11-04T19:07:02.563Z,98.40
2017-11-04T19:09:30.160Z,98.40
2017-11-04T19:11:57.748Z,98.70
2017-11-04T19:14:25.790Z,98.90
2017-11-04T19:16:53.416Z,99.00
2017-11-04T19:19:21.016Z,99.10
2017-11-04T19:21:48.701Z,99.20
2017-11-04T19:24:16.322Z,99.60
2017-11-04T19:26:44.049Z,99.50
2017-11-04T19:29:12.474Z,99.60
2017-11-04T19:31:40.202Z,99.70
2017-11-04T19:34:07.843Z,99.90
2017-11-04T19:36:35.495Z,99.90
2017-11-04T19:39:03.365Z,99.90
2017-11-04T19:41:31.005Z,99.90
2017-11-04T19:43:59.359Z,99.90
2017-11-04T19:46:26.928Z,99.90
2017-11-04T19:48:55.317Z,99.90
2017-11-04T19:51:23.752Z,99.90
2017-11-04T19:53:51.391Z,99.90
2017-11-04T19:56:19.041Z,99.90
2017-11-04T19:58:46.671Z,99.90
2017-11-04T20:01:14.444Z,99.90
2017-11-04T20:03:42.070Z,99.90
2017-11-04T20:06:09.725Z,99.90
2017-11-04T20:08:38.099Z,99.90
2017-11-04T20:11:05.659Z,99.90
2017-11-04T20:13:33.290Z,99.90
2017-11-04T20:16:01.732Z,99.90
2017-11-04T20:18:29.829Z,99.90
2017-11-04T20:20:58.176Z,99.90
2017-11-04T20:23:26.660Z,99.90
2017-11-04T20:25:54.249Z,99.90
2017-11-04T20:28:21.912Z,99.90
2017-11-04T20:30:49.493Z,99.90
2017-11-04T20:33:17.074Z,99.90
2017-11-04T20:35:44.657Z,99.90
2017-11-04T20:38:12.353Z,99.90
2017-11-04T20:40:40.973Z,99.90
2017-11-04T20:43:08.623Z,99.90
2017-11-04T20:45:36.262Z,99.90
2017-11-04T20:48:04.688Z,99.90
2017-11-04T20:50:33.283Z,99.90
2017-11-04T20:53:00.907Z,99.90
2017-11-04T20:55:28.626Z,99.90
2017-11-04T20:57:56.237Z,99.90
2017-11-04T21:00:23.818Z,99.90
2017-11-04T21:02:51.460Z,99.90
2017-11-04T21:05:19.085Z,99.90
2017-11-04T21:07:47.530Z,99.90
2017-11-04T21:10:15.165Z,99.90
2017-11-04T21:12:42.801Z,99.90
2017-11-04T21:15:11.228Z,99.90
2017-11-04T21:17:38.984Z,99.90
2017-11-04T21:20:06.626Z,99.90
2017-11-04T21:22:34.267Z,99.90
2017-11-04T21:25:02.068Z,99.90
2017-11-04T21:27:29.724Z,99.90
2017-11-04T21:29:57.306Z,99.90
2017-11-04T21:32:25.895Z,99.90
2017-11-04T21:34:53.491Z,99.90
2017-11-04T21:37:21.868Z,99.90
2017-11-04T21:39:49.639Z,99.90
2017-11-04T21:42:17.555Z,99.90
2017-11-04T21:44:45.943Z,99.90
2017-11-04T21:47:13.585Z,99.90
2017-11-04T21:49:41.222Z,99.90
2017-11-04T21:52:08.929Z,99.90
2017-11-04T21:54:36.542Z,99.90
2017-11-04T21:57:05.121Z,99.90
2017-11-04T21:59:32.705Z,99.90
2017-11-04T22:02:01.189Z,99.90
2017-11-04T22:04:29.573Z,99.90
2017-11-04T22:06:57.977Z,99.90
2017-11-04T22:09:26.367Z,99.90
2017-11-04T22:11:53.970Z,99.90
2017-11-04T22:14:21.674Z,99.90
2017-11-04T22:16:49.263Z,99.90
2017-11-04T22:19:16.875Z,99.90
2017-11-04T22:21:44.514Z,99.90
2017-11-04T22:24:12.124Z,99.90
2017-11-04T22:26:39.729Z,99.90
2017-11-04T22:29:07.369Z,99.90
2017-11-04T22:31:34.957Z,99.80
2017-11-04T22:34:02.542Z,99.80
2017-11-04T22:36:30.124Z,99.70
2017-11-04T22:38:58.845Z,99.90
2017-11-04T22:41:26.805Z,99.80
2017-11-04T22:43:54.467Z,99.80
2017-11-04T22:46:22.143Z,99.70
2017-11-04T22:48:49.767Z,99.70
2017-11-04T22:51:17.402Z,99.60
2017-11-04T22:53:44.997Z,99.60
2017-11-04T22:56:12.618Z,99.40
2017-11-04T22:58:40.237Z,99.40
2017-11-04T23:01:07.917Z,99.50
2017-11-04T23:03:35.492Z,99.50
2017-11-04T23:06:03.935Z,99.20
2017-11-04T23:08:31.518Z,99.20
2017-11-04T23:10:59.175Z,99.20
2017-11-04T23:13:26.804Z,99.20
2017-11-04T23:15:55.142Z,99.30
2017-11-04T23:18:23.116Z,99.30
2017-11-04T23:20:50.788Z,99.60
2017-11-04T23:23:19.208Z,99.90
2017-11-04T23:25:46.809Z,99.90
2017-11-04T23:28:14.390Z,99.90
2017-11-04T23:30:41.993Z,99.90
2017-11-04T23:33:09.604Z,99.90
2017-11-04T23:35:37.207Z,99.90
2017-11-04T23:38:04.775Z,99.90
2017-11-04T23:40:32.541Z,99.90
2017-11-04T23:43:00.158Z,99.90
2017-11-04T23:45:28.526Z,99.90
2017-11-04T23:47:56.137Z,99.90
2017-11-04T23:50:23.737Z,99.90
2017-11-04T23:52:51.417Z,99.90
2017-11-04T23:55:19.058Z,99.90
2017-11-04T23:57:46.649Z,99.90
